sensor_id;sensor_type;location;lat;lon;timestamp;P1;durP1;ratioP1;P2;durP2;ratioP2
11222;SDS011;5668;52.012;8.724;2022-12-28T00:01:10;4.50;;;1.90;;
11222;SDS011;5668;52.012;8.724;2022-12-28T00:03:40;4.17;;;2.10;;
11222;SDS011;5668;52.012;8.724;2022-12-28T00:06:08;2.53;;;1.70;;
11222;SDS011;5668;52.012;8.724;2022-12-28T00:08:35;3.00;;;1.93;;
11222;SDS011;5668;52.012;8.724;2022-12-28T00:11:05;3.37;;;1.90;;
11222;SDS011;5668;52.012;8.724;2022-12-28T00:13:36;3.20;;;1.87;;
11222;SDS011;5668;52.012;8.724;2022-12-28T00:16:07;4.00;;;1.77;;
11222;SDS011;5668;52.012;8.724;2022-12-28T00:18:41;4.63;;;2.30;;
11222;SDS011;5668;52.012;8.724;2022-12-28T00:21:09;3.60;;;1.60;;
11222;SDS011;5668;52.012;8.724;2022-12-28T00:23:36;5.40;;;2.10;;
11222;SDS011;5668;52.012;8.724;2022-12-28T00:26:08;3.83;;;1.77;;
11222;SDS011;5668;52.012;8.724;2022-12-28T00:28:37;5.07;;;2.00;;
11222;SDS011;5668;52.012;8.724;2022-12-28T00:31:04;4.40;;;1.70;;
11222;SDS011;5668;52.012;8.724;2022-12-28T00:33:32;4.20;;;2.00;;
11222;SDS011;5668;52.012;8.724;2022-12-28T00:35:59;4.30;;;1.70;;
11222;SDS011;5668;52.012;8.724;2022-12-28T00:38:33;4.77;;;1.67;;
11222;SDS011;5668;52.012;8.724;2022-12-28T00:41:20;4.53;;;1.60;;
11222;SDS011;5668;52.012;8.724;2022-12-28T00:43:47;4.03;;;2.00;;
11222;SDS011;5668;52.012;8.724;2022-12-28T00:46:16;4.20;;;1.80;;
11222;SDS011;5668;52.012;8.724;2022-12-28T00:48:43;2.37;;;1.60;;
11222;SDS011;5668;52.012;8.724;2022-12-28T00:51:11;3.40;;;1.60;;
11222;SDS011;5668;52.012;8.724;2022-12-28T00:53:39;5.40;;;2.10;;
11222;SDS011;5668;52.012;8.724;2022-12-28T00:56:07;5.77;;;2.00;;
11222;SDS011;5668;52.012;8.724;2022-12-28T00:58:39;4.27;;;1.90;;
11222;SDS011;5668;52.012;8.724;2022-12-28T01:01:11;2.60;;;1.60;;
11222;SDS011;5668;52.012;8.724;2022-12-28T01:03:41;4.47;;;1.50;;
11222;SDS011;5668;52.012;8.724;2022-12-28T01:06:09;2.87;;;1.57;;
11222;SDS011;5668;52.012;8.724;2022-12-28T01:08:38;5.67;;;1.80;;
11222;SDS011;5668;52.012;8.724;2022-12-28T01:11:06;3.20;;;1.40;;
11222;SDS011;5668;52.012;8.724;2022-12-28T01:13:36;3.73;;;1.80;;
11222;SDS011;5668;52.012;8.724;2022-12-28T01:16:09;2.70;;;1.50;;
11222;SDS011;5668;52.012;8.724;2022-12-28T01:18:38;3.50;;;1.30;;
11222;SDS011;5668;52.012;8.724;2022-12-28T01:21:09;3.40;;;1.43;;
11222;SDS011;5668;52.012;8.724;2022-12-28T01:23:38;3.20;;;1.67;;
11222;SDS011;5668;52.012;8.724;2022-12-28T01:26:05;5.17;;;1.83;;
11222;SDS011;5668;52.012;8.724;2022-12-28T01:28:34;2.93;;;1.60;;
11222;SDS011;5668;52.012;8.724;2022-12-28T01:31:03;6.07;;;2.00;;
11222;SDS011;5668;52.012;8.724;2022-12-28T01:33:32;4.13;;;1.93;;
11222;SDS011;5668;52.012;8.724;2022-12-28T01:36:04;2.37;;;1.60;;
11222;SDS011;5668;52.012;8.724;2022-12-28T01:38:32;4.77;;;1.80;;
11222;SDS011;5668;52.012;8.724;2022-12-28T01:40:59;3.50;;;1.53;;
11222;SDS011;5668;52.012;8.724;2022-12-28T01:43:39;4.57;;;1.70;;
11222;SDS011;5668;52.012;8.724;2022-12-28T01:46:11;3.23;;;1.70;;
11222;SDS011;5668;52.012;8.724;2022-12-28T01:48:44;4.83;;;1.97;;
11222;SDS011;5668;52.012;8.724;2022-12-28T01:51:22;2.53;;;1.50;;
11222;SDS011;5668;52.012;8.724;2022-12-28T01:53:58;5.23;;;1.83;;
11222;SDS011;5668;52.012;8.724;2022-12-28T01:56:33;3.13;;;1.63;;
11222;SDS011;5668;52.012;8.724;2022-12-28T01:59:01;7.23;;;1.83;;
11222;SDS011;5668;52.012;8.724;2022-12-28T02:01:33;2.10;;;1.60;;
11222;SDS011;5668;52.012;8.724;2022-12-28T02:04:00;4.07;;;1.80;;
11222;SDS011;5668;52.012;8.724;2022-12-28T02:06:29;1.93;;;1.43;;
11222;SDS011;5668;52.012;8.724;2022-12-28T02:08:59;3.67;;;1.50;;
11222;SDS011;5668;52.012;8.724;2022-12-28T02:11:33;4.83;;;1.60;;
11222;SDS011;5668;52.012;8.724;2022-12-28T02:14:03;2.43;;;1.60;;
11222;SDS011;5668;52.012;8.724;2022-12-28T02:16:33;3.57;;;1.80;;
11222;SDS011;5668;52.012;8.724;2022-12-28T02:19:01;2.80;;;1.70;;
11222;SDS011;5668;52.012;8.724;2022-12-28T02:21:32;2.83;;;1.60;;
11222;SDS011;5668;52.012;8.724;2022-12-28T02:24:14;4.77;;;1.87;;
11222;SDS011;5668;52.012;8.724;2022-12-28T02:27:00;1.63;;;1.47;;
11222;SDS011;5668;52.012;8.724;2022-12-28T02:29:39;3.50;;;1.87;;
11222;SDS011;5668;52.012;8.724;2022-12-28T02:32:36;3.70;;;1.67;;
11222;SDS011;5668;52.012;8.724;2022-12-28T02:35:13;3.80;;;1.80;;
11222;SDS011;5668;52.012;8.724;2022-12-28T02:37:52;3.53;;;2.00;;
11222;SDS011;5668;52.012;8.724;2022-12-28T02:40:25;2.40;;;1.53;;
11222;SDS011;5668;52.012;8.724;2022-12-28T02:42:59;3.37;;;1.77;;
11222;SDS011;5668;52.012;8.724;2022-12-28T02:45:34;2.27;;;1.60;;
11222;SDS011;5668;52.012;8.724;2022-12-28T02:48:21;3.43;;;1.67;;
11222;SDS011;5668;52.012;8.724;2022-12-28T02:51:08;4.10;;;1.70;;
11222;SDS011;5668;52.012;8.724;2022-12-28T02:54:02;2.37;;;1.77;;
11222;SDS011;5668;52.012;8.724;2022-12-28T02:57:26;5.33;;;2.03;;
11222;SDS011;5668;52.012;8.724;2022-12-28T03:05:35;2.80;;;1.70;;
11222;SDS011;5668;52.012;8.724;2022-12-28T03:08:33;3.80;;;1.73;;
11222;SDS011;5668;52.012;8.724;2022-12-28T03:11:09;3.40;;;1.83;;
11222;SDS011;5668;52.012;8.724;2022-12-28T03:13:42;2.80;;;1.80;;
11222;SDS011;5668;52.012;8.724;2022-12-28T03:16:18;3.77;;;3.33;;
11222;SDS011;5668;52.012;8.724;2022-12-28T03:19:02;4.30;;;1.80;;
11222;SDS011;5668;52.012;8.724;2022-12-28T03:21:51;2.53;;;1.70;;
11222;SDS011;5668;52.012;8.724;2022-12-28T03:24:39;3.93;;;2.07;;
11222;SDS011;5668;52.012;8.724;2022-12-28T03:27:31;6.23;;;2.07;;
11222;SDS011;5668;52.012;8.724;2022-12-28T03:30:17;4.90;;;2.03;;
11222;SDS011;5668;52.012;8.724;2022-12-28T03:33:07;3.83;;;1.80;;
11222;SDS011;5668;52.012;8.724;2022-12-28T03:35:38;4.33;;;1.83;;
11222;SDS011;5668;52.012;8.724;2022-12-28T03:38:26;3.03;;;1.87;;
11222;SDS011;5668;52.012;8.724;2022-12-28T03:41:06;3.10;;;1.73;;
11222;SDS011;5668;52.012;8.724;2022-12-28T03:43:41;3.83;;;2.00;;
11222;SDS011;5668;52.012;8.724;2022-12-28T03:46:14;3.23;;;1.77;;
11222;SDS011;5668;52.012;8.724;2022-12-28T03:48:44;3.07;;;1.67;;
11222;SDS011;5668;52.012;8.724;2022-12-28T03:51:18;5.27;;;1.90;;
11222;SDS011;5668;52.012;8.724;2022-12-28T03:53:47;2.90;;;1.70;;
11222;SDS011;5668;52.012;8.724;2022-12-28T03:56:16;2.33;;;1.70;;
11222;SDS011;5668;52.012;8.724;2022-12-28T03:58:47;3.70;;;1.63;;
11222;SDS011;5668;52.012;8.724;2022-12-28T04:01:14;3.57;;;1.67;;
11222;SDS011;5668;52.012;8.724;2022-12-28T04:03:42;2.83;;;1.70;;
11222;SDS011;5668;52.012;8.724;2022-12-28T04:06:10;3.17;;;1.60;;
11222;SDS011;5668;52.012;8.724;2022-12-28T04:08:41;3.77;;;1.60;;
11222;SDS011;5668;52.012;8.724;2022-12-28T04:11:09;2.80;;;1.50;;
11222;SDS011;5668;52.012;8.724;2022-12-28T04:13:36;3.70;;;1.70;;
11222;SDS011;5668;52.012;8.724;2022-12-28T04:16:04;3.53;;;1.77;;
11222;SDS011;5668;52.012;8.724;2022-12-28T04:18:34;2.03;;;1.60;;
11222;SDS011;5668;52.012;8.724;2022-12-28T04:21:01;3.90;;;1.80;;
11222;SDS011;5668;52.012;8.724;2022-12-28T04:23:30;2.47;;;1.70;;
11222;SDS011;5668;52.012;8.724;2022-12-28T04:26:00;3.23;;;2.00;;
11222;SDS011;5668;52.012;8.724;2022-12-28T04:28:30;3.13;;;1.60;;
11222;SDS011;5668;52.012;8.724;2022-12-28T04:30:57;2.33;;;1.83;;
11222;SDS011;5668;52.012;8.724;2022-12-28T04:33:26;4.70;;;1.70;;
11222;SDS011;5668;52.012;8.724;2022-12-28T04:36:04;2.37;;;1.63;;
11222;SDS011;5668;52.012;8.724;2022-12-28T04:38:34;4.03;;;1.80;;
11222;SDS011;5668;52.012;8.724;2022-12-28T04:41:03;2.77;;;1.40;;
11222;SDS011;5668;52.012;8.724;2022-12-28T04:43:32;3.40;;;1.87;;
11222;SDS011;5668;52.012;8.724;2022-12-28T04:46:00;2.23;;;1.83;;
11222;SDS011;5668;52.012;8.724;2022-12-28T04:48:31;3.70;;;1.70;;
11222;SDS011;5668;52.012;8.724;2022-12-28T04:51:06;3.10;;;1.70;;
11222;SDS011;5668;52.012;8.724;2022-12-28T04:57:00;2.50;;;1.60;;
11222;SDS011;5668;52.012;8.724;2022-12-28T04:59:27;2.63;;;1.70;;
11222;SDS011;5668;52.012;8.724;2022-12-28T05:01:54;1.60;;;1.50;;
11222;SDS011;5668;52.012;8.724;2022-12-28T05:04:22;3.33;;;1.50;;
11222;SDS011;5668;52.012;8.724;2022-12-28T05:06:49;2.43;;;1.67;;
11222;SDS011;5668;52.012;8.724;2022-12-28T05:09:16;2.50;;;1.57;;
11222;SDS011;5668;52.012;8.724;2022-12-28T05:11:43;4.20;;;1.60;;
11222;SDS011;5668;52.012;8.724;2022-12-28T05:14:14;1.77;;;1.63;;
11222;SDS011;5668;52.012;8.724;2022-12-28T05:16:42;3.77;;;1.90;;
11222;SDS011;5668;52.012;8.724;2022-12-28T05:19:09;2.27;;;1.70;;
11222;SDS011;5668;52.012;8.724;2022-12-28T05:21:36;2.50;;;1.50;;
11222;SDS011;5668;52.012;8.724;2022-12-28T05:24:03;2.27;;;1.60;;
11222;SDS011;5668;52.012;8.724;2022-12-28T05:26:34;1.90;;;1.50;;
11222;SDS011;5668;52.012;8.724;2022-12-28T05:29:01;2.90;;;1.50;;
11222;SDS011;5668;52.012;8.724;2022-12-28T05:31:30;4.93;;;1.87;;
11222;SDS011;5668;52.012;8.724;2022-12-28T05:33:57;2.87;;;1.70;;
11222;SDS011;5668;52.012;8.724;2022-12-28T05:36:25;2.87;;;1.63;;
11222;SDS011;5668;52.012;8.724;2022-12-28T05:38:52;3.00;;;1.67;;
11222;SDS011;5668;52.012;8.724;2022-12-28T05:41:21;3.83;;;2.00;;
11222;SDS011;5668;52.012;8.724;2022-12-28T05:43:50;2.57;;;1.43;;
11222;SDS011;5668;52.012;8.724;2022-12-28T05:46:18;1.50;;;1.40;;
11222;SDS011;5668;52.012;8.724;2022-12-28T05:48:52;1.90;;;1.50;;
11222;SDS011;5668;52.012;8.724;2022-12-28T05:51:20;1.87;;;1.50;;
11222;SDS011;5668;52.012;8.724;2022-12-28T05:53:50;3.63;;;1.73;;
11222;SDS011;5668;52.012;8.724;2022-12-28T05:56:18;3.37;;;1.60;;
11222;SDS011;5668;52.012;8.724;2022-12-28T05:58:50;4.30;;;1.70;;
11222;SDS011;5668;52.012;8.724;2022-12-28T06:01:20;1.80;;;1.40;;
11222;SDS011;5668;52.012;8.724;2022-12-28T06:03:53;2.60;;;1.87;;
11222;SDS011;5668;52.012;8.724;2022-12-28T06:06:22;2.60;;;1.60;;
11222;SDS011;5668;52.012;8.724;2022-12-28T06:08:49;2.27;;;1.30;;
11222;SDS011;5668;52.012;8.724;2022-12-28T06:11:18;1.80;;;1.70;;
11222;SDS011;5668;52.012;8.724;2022-12-28T06:13:46;2.43;;;1.50;;
11222;SDS011;5668;52.012;8.724;2022-12-28T06:16:15;3.73;;;1.70;;
11222;SDS011;5668;52.012;8.724;2022-12-28T06:18:44;3.70;;;1.70;;
11222;SDS011;5668;52.012;8.724;2022-12-28T06:21:13;1.70;;;1.60;;
11222;SDS011;5668;52.012;8.724;2022-12-28T06:23:42;1.80;;;1.50;;
11222;SDS011;5668;52.012;8.724;2022-12-28T06:26:10;3.80;;;1.70;;
11222;SDS011;5668;52.012;8.724;2022-12-28T06:28:40;2.40;;;1.50;;
11222;SDS011;5668;52.012;8.724;2022-12-28T06:31:09;2.17;;;1.53;;
11222;SDS011;5668;52.012;8.724;2022-12-28T06:33:38;2.57;;;1.80;;
11222;SDS011;5668;52.012;8.724;2022-12-28T06:36:09;1.90;;;1.60;;
11222;SDS011;5668;52.012;8.724;2022-12-28T06:38:40;2.60;;;1.53;;
11222;SDS011;5668;52.012;8.724;2022-12-28T06:41:09;2.37;;;1.70;;
11222;SDS011;5668;52.012;8.724;2022-12-28T06:43:38;3.50;;;1.90;;
11222;SDS011;5668;52.012;8.724;2022-12-28T06:46:07;3.23;;;1.80;;
11222;SDS011;5668;52.012;8.724;2022-12-28T06:48:35;1.50;;;1.40;;
11222;SDS011;5668;52.012;8.724;2022-12-28T06:51:03;3.10;;;1.90;;
11222;SDS011;5668;52.012;8.724;2022-12-28T06:53:36;3.43;;;1.90;;
11222;SDS011;5668;52.012;8.724;2022-12-28T06:56:04;2.97;;;1.80;;
11222;SDS011;5668;52.012;8.724;2022-12-28T06:58:34;3.10;;;1.90;;
11222;SDS011;5668;52.012;8.724;2022-12-28T07:01:04;3.03;;;1.80;;
11222;SDS011;5668;52.012;8.724;2022-12-28T07:03:32;3.90;;;1.73;;
11222;SDS011;5668;52.012;8.724;2022-12-28T07:06:00;3.13;;;1.97;;
11222;SDS011;5668;52.012;8.724;2022-12-28T07:08:28;2.80;;;1.97;;
11222;SDS011;5668;52.012;8.724;2022-12-28T07:11:04;2.83;;;1.70;;
11222;SDS011;5668;52.012;8.724;2022-12-28T07:13:35;2.90;;;1.47;;
11222;SDS011;5668;52.012;8.724;2022-12-28T07:16:04;1.77;;;1.60;;
11222;SDS011;5668;52.012;8.724;2022-12-28T07:18:43;2.43;;;1.70;;
11222;SDS011;5668;52.012;8.724;2022-12-28T07:21:12;2.50;;;1.67;;
11222;SDS011;5668;52.012;8.724;2022-12-28T07:23:40;2.73;;;1.53;;
11222;SDS011;5668;52.012;8.724;2022-12-28T07:26:16;1.63;;;1.50;;
11222;SDS011;5668;52.012;8.724;2022-12-28T07:28:46;2.73;;;1.60;;
11222;SDS011;5668;52.012;8.724;2022-12-28T07:31:15;2.40;;;1.90;;
11222;SDS011;5668;52.012;8.724;2022-12-28T07:33:44;1.80;;;1.40;;
11222;SDS011;5668;52.012;8.724;2022-12-28T07:36:13;1.60;;;1.50;;
11222;SDS011;5668;52.012;8.724;2022-12-28T07:38:42;3.03;;;1.83;;
11222;SDS011;5668;52.012;8.724;2022-12-28T07:41:11;2.93;;;1.60;;
11222;SDS011;5668;52.012;8.724;2022-12-28T07:43:41;1.57;;;1.47;;
11222;SDS011;5668;52.012;8.724;2022-12-28T07:46:10;2.63;;;1.80;;
11222;SDS011;5668;52.012;8.724;2022-12-28T07:48:45;3.10;;;1.57;;
11222;SDS011;5668;52.012;8.724;2022-12-28T07:51:14;1.73;;;1.30;;
11222;SDS011;5668;52.012;8.724;2022-12-28T07:53:43;2.53;;;1.30;;
11222;SDS011;5668;52.012;8.724;2022-12-28T07:56:25;2.53;;;1.43;;
11222;SDS011;5668;52.012;8.724;2022-12-28T07:58:57;2.43;;;1.27;;
11222;SDS011;5668;52.012;8.724;2022-12-28T08:01:29;3.53;;;1.40;;
11222;SDS011;5668;52.012;8.724;2022-12-28T08:04:03;1.90;;;1.20;;
11222;SDS011;5668;52.012;8.724;2022-12-28T08:06:34;1.73;;;1.40;;
11222;SDS011;5668;52.012;8.724;2022-12-28T08:09:03;1.30;;;1.20;;
11222;SDS011;5668;52.012;8.724;2022-12-28T08:11:35;2.17;;;1.40;;
11222;SDS011;5668;52.012;8.724;2022-12-28T08:14:05;1.77;;;1.40;;
11222;SDS011;5668;52.012;8.724;2022-12-28T08:16:36;1.40;;;1.30;;
11222;SDS011;5668;52.012;8.724;2022-12-28T08:19:05;1.27;;;1.17;;
11222;SDS011;5668;52.012;8.724;2022-12-28T08:21:35;2.53;;;1.30;;
11222;SDS011;5668;52.012;8.724;2022-12-28T08:24:05;1.30;;;1.20;;
11222;SDS011;5668;52.012;8.724;2022-12-28T08:26:34;1.63;;;1.03;;
11222;SDS011;5668;52.012;8.724;2022-12-28T08:29:04;1.20;;;1.00;;
11222;SDS011;5668;52.012;8.724;2022-12-28T08:31:38;1.10;;;1.00;;
11222;SDS011;5668;52.012;8.724;2022-12-28T08:34:07;1.47;;;1.20;;
11222;SDS011;5668;52.012;8.724;2022-12-28T08:36:37;1.33;;;0.90;;
11222;SDS011;5668;52.012;8.724;2022-12-28T08:39:05;1.37;;;1.10;;
11222;SDS011;5668;52.012;8.724;2022-12-28T08:41:34;1.73;;;1.10;;
11222;SDS011;5668;52.012;8.724;2022-12-28T08:44:02;1.37;;;1.00;;
11222;SDS011;5668;52.012;8.724;2022-12-28T08:46:35;1.40;;;0.90;;
11222;SDS011;5668;52.012;8.724;2022-12-28T08:49:04;0.97;;;0.97;;
11222;SDS011;5668;52.012;8.724;2022-12-28T08:51:32;1.57;;;0.93;;
11222;SDS011;5668;52.012;8.724;2022-12-28T08:54:06;1.10;;;1.00;;
11222;SDS011;5668;52.012;8.724;2022-12-28T08:56:34;1.20;;;0.90;;
11222;SDS011;5668;52.012;8.724;2022-12-28T08:59:03;1.23;;;0.97;;
11222;SDS011;5668;52.012;8.724;2022-12-28T09:01:32;1.07;;;0.90;;
11222;SDS011;5668;52.012;8.724;2022-12-28T09:04:03;1.20;;;1.03;;
11222;SDS011;5668;52.012;8.724;2022-12-28T09:06:32;2.10;;;1.00;;
11222;SDS011;5668;52.012;8.724;2022-12-28T09:09:06;0.80;;;0.80;;
11222;SDS011;5668;52.012;8.724;2022-12-28T09:11:37;1.00;;;0.90;;
11222;SDS011;5668;52.012;8.724;2022-12-28T09:14:06;1.20;;;1.10;;
11222;SDS011;5668;52.012;8.724;2022-12-28T09:16:37;1.53;;;1.07;;
11222;SDS011;5668;52.012;8.724;2022-12-28T09:19:06;1.00;;;0.90;;
11222;SDS011;5668;52.012;8.724;2022-12-28T09:21:36;1.70;;;1.00;;
11222;SDS011;5668;52.012;8.724;2022-12-28T09:24:04;1.27;;;1.10;;
11222;SDS011;5668;52.012;8.724;2022-12-28T09:26:35;1.17;;;1.10;;
11222;SDS011;5668;52.012;8.724;2022-12-28T09:29:06;0.80;;;0.80;;
11222;SDS011;5668;52.012;8.724;2022-12-28T09:31:39;1.20;;;1.10;;
11222;SDS011;5668;52.012;8.724;2022-12-28T09:34:09;1.13;;;0.80;;
11222;SDS011;5668;52.012;8.724;2022-12-28T09:36:39;1.10;;;1.00;;
11222;SDS011;5668;52.012;8.724;2022-12-28T09:39:08;1.37;;;1.00;;
11222;SDS011;5668;52.012;8.724;2022-12-28T09:41:57;0.97;;;0.90;;
11222;SDS011;5668;52.012;8.724;2022-12-28T09:44:32;0.97;;;0.90;;
11222;SDS011;5668;52.012;8.724;2022-12-28T09:47:19;1.50;;;0.97;;
11222;SDS011;5668;52.012;8.724;2022-12-28T09:52:57;1.10;;;1.00;;
11222;SDS011;5668;52.012;8.724;2022-12-28T09:55:47;1.87;;;1.10;;
11222;SDS011;5668;52.012;8.724;2022-12-28T09:58:25;1.13;;;1.00;;
11222;SDS011;5668;52.012;8.724;2022-12-28T10:00:55;1.57;;;1.37;;
11222;SDS011;5668;52.012;8.724;2022-12-28T10:03:26;2.90;;;1.20;;
11222;SDS011;5668;52.012;8.724;2022-12-28T10:06:00;2.23;;;1.30;;
11222;SDS011;5668;52.012;8.724;2022-12-28T10:08:30;1.30;;;1.20;;
11222;SDS011;5668;52.012;8.724;2022-12-28T10:11:07;1.57;;;1.40;;
11222;SDS011;5668;52.012;8.724;2022-12-28T10:13:40;1.30;;;1.20;;
11222;SDS011;5668;52.012;8.724;2022-12-28T10:16:10;1.20;;;1.07;;
11222;SDS011;5668;52.012;8.724;2022-12-28T10:18:47;1.10;;;0.97;;
11222;SDS011;5668;52.012;8.724;2022-12-28T10:21:15;1.20;;;1.10;;
11222;SDS011;5668;52.012;8.724;2022-12-28T10:23:44;2.07;;;1.13;;
11222;SDS011;5668;52.012;8.724;2022-12-28T10:26:15;1.30;;;1.10;;
11222;SDS011;5668;52.012;8.724;2022-12-28T10:28:47;2.53;;;0.90;;
11222;SDS011;5668;52.012;8.724;2022-12-28T10:31:29;1.10;;;1.00;;
11222;SDS011;5668;52.012;8.724;2022-12-28T10:34:04;1.10;;;1.00;;
11222;SDS011;5668;52.012;8.724;2022-12-28T10:36:47;1.77;;;1.10;;
11222;SDS011;5668;52.012;8.724;2022-12-28T10:39:19;1.20;;;1.10;;
11222;SDS011;5668;52.012;8.724;2022-12-28T10:43:40;1.27;;;1.13;;
11222;SDS011;5668;52.012;8.724;2022-12-28T10:46:13;1.40;;;1.30;;
11222;SDS011;5668;52.012;8.724;2022-12-28T10:48:43;1.37;;;1.27;;
11222;SDS011;5668;52.012;8.724;2022-12-28T10:51:15;1.40;;;1.30;;
11222;SDS011;5668;52.012;8.724;2022-12-28T10:53:46;2.27;;;1.43;;
11222;SDS011;5668;52.012;8.724;2022-12-28T10:56:20;1.70;;;1.00;;
11222;SDS011;5668;52.012;8.724;2022-12-28T10:58:52;1.40;;;1.30;;
11222;SDS011;5668;52.012;8.724;2022-12-28T11:01:25;1.27;;;1.17;;
11222;SDS011;5668;52.012;8.724;2022-12-28T11:04:15;1.40;;;1.30;;
11222;SDS011;5668;52.012;8.724;2022-12-28T11:06:53;1.30;;;1.20;;
11222;SDS011;5668;52.012;8.724;2022-12-28T11:09:32;1.83;;;1.27;;
11222;SDS011;5668;52.012;8.724;2022-12-28T11:12:14;1.57;;;1.47;;
11222;SDS011;5668;52.012;8.724;2022-12-28T11:14:43;2.77;;;1.23;;
11222;SDS011;5668;52.012;8.724;2022-12-28T11:17:13;1.70;;;1.60;;
11222;SDS011;5668;52.012;8.724;2022-12-28T11:19:43;2.10;;;1.90;;
11222;SDS011;5668;52.012;8.724;2022-12-28T11:22:12;1.50;;;1.40;;
11222;SDS011;5668;52.012;8.724;2022-12-28T11:24:45;1.47;;;1.33;;
11222;SDS011;5668;52.012;8.724;2022-12-28T11:27:13;2.17;;;1.40;;
11222;SDS011;5668;52.012;8.724;2022-12-28T11:29:46;1.20;;;1.10;;
11222;SDS011;5668;52.012;8.724;2022-12-28T11:32:16;1.30;;;1.20;;
11222;SDS011;5668;52.012;8.724;2022-12-28T11:34:47;2.20;;;1.50;;
11222;SDS011;5668;52.012;8.724;2022-12-28T11:37:16;2.03;;;1.40;;
11222;SDS011;5668;52.012;8.724;2022-12-28T11:39:43;1.40;;;1.30;;
11222;SDS011;5668;52.012;8.724;2022-12-28T11:42:14;1.50;;;1.40;;
11222;SDS011;5668;52.012;8.724;2022-12-28T11:45:53;1.63;;;1.53;;
11222;SDS011;5668;52.012;8.724;2022-12-28T11:51:22;2.37;;;1.50;;
11222;SDS011;5668;52.012;8.724;2022-12-28T11:53:52;1.87;;;1.40;;
11222;SDS011;5668;52.012;8.724;2022-12-28T11:56:23;1.50;;;1.40;;
11222;SDS011;5668;52.012;8.724;2022-12-28T12:01:52;1.50;;;1.40;;
11222;SDS011;5668;52.012;8.724;2022-12-28T12:10:19;2.37;;;1.40;;
11222;SDS011;5668;52.012;8.724;2022-12-28T12:16:16;1.50;;;1.40;;
11222;SDS011;5668;52.012;8.724;2022-12-28T12:18:48;1.67;;;1.40;;
11222;SDS011;5668;52.012;8.724;2022-12-28T12:21:22;1.60;;;1.50;;
11222;SDS011;5668;52.012;8.724;2022-12-28T12:23:59;2.70;;;1.47;;
11222;SDS011;5668;52.012;8.724;2022-12-28T12:26:45;1.30;;;1.20;;
11222;SDS011;5668;52.012;8.724;2022-12-28T12:29:17;2.73;;;1.30;;
11222;SDS011;5668;52.012;8.724;2022-12-28T12:31:56;1.43;;;1.17;;
11222;SDS011;5668;52.012;8.724;2022-12-28T12:34:35;1.40;;;1.30;;
11222;SDS011;5668;52.012;8.724;2022-12-28T12:37:21;1.30;;;1.10;;
11222;SDS011;5668;52.012;8.724;2022-12-28T12:43:12;1.40;;;1.30;;
11222;SDS011;5668;52.012;8.724;2022-12-28T12:45:55;2.23;;;1.20;;
11222;SDS011;5668;52.012;8.724;2022-12-28T12:48:41;1.33;;;1.10;;
11222;SDS011;5668;52.012;8.724;2022-12-28T12:51:32;1.33;;;1.23;;
11222;SDS011;5668;52.012;8.724;2022-12-28T12:54:08;1.80;;;1.30;;
11222;SDS011;5668;52.012;8.724;2022-12-28T12:56:46;1.20;;;1.10;;
11222;SDS011;5668;52.012;8.724;2022-12-28T12:59:34;1.30;;;1.20;;
11222;SDS011;5668;52.012;8.724;2022-12-28T13:05:17;1.30;;;1.20;;
11222;SDS011;5668;52.012;8.724;2022-12-28T13:07:47;1.53;;;1.43;;
11222;SDS011;5668;52.012;8.724;2022-12-28T13:10:18;4.23;;;1.40;;
11222;SDS011;5668;52.012;8.724;2022-12-28T13:12:50;1.23;;;1.13;;
11222;SDS011;5668;52.012;8.724;2022-12-28T13:15:22;1.60;;;1.40;;
11222;SDS011;5668;52.012;8.724;2022-12-28T13:18:03;1.10;;;1.00;;
11222;SDS011;5668;52.012;8.724;2022-12-28T13:20:33;1.40;;;1.20;;
11222;SDS011;5668;52.012;8.724;2022-12-28T13:23:00;1.20;;;0.90;;
11222;SDS011;5668;52.012;8.724;2022-12-28T13:25:30;1.33;;;1.20;;
11222;SDS011;5668;52.012;8.724;2022-12-28T13:28:00;2.10;;;1.20;;
11222;SDS011;5668;52.012;8.724;2022-12-28T13:30:28;1.30;;;1.10;;
11222;SDS011;5668;52.012;8.724;2022-12-28T13:32:56;1.50;;;1.10;;
11222;SDS011;5668;52.012;8.724;2022-12-28T13:35:28;1.10;;;1.00;;
11222;SDS011;5668;52.012;8.724;2022-12-28T13:38:01;1.83;;;1.30;;
11222;SDS011;5668;52.012;8.724;2022-12-28T13:40:31;3.00;;;1.00;;
11222;SDS011;5668;52.012;8.724;2022-12-28T13:43:02;1.70;;;1.10;;
11222;SDS011;5668;52.012;8.724;2022-12-28T13:45:56;1.37;;;1.10;;
11222;SDS011;5668;52.012;8.724;2022-12-28T13:48:32;1.83;;;1.20;;
11222;SDS011;5668;52.012;8.724;2022-12-28T13:51:02;2.60;;;1.27;;
11222;SDS011;5668;52.012;8.724;2022-12-28T13:53:35;3.20;;;1.40;;
11222;SDS011;5668;52.012;8.724;2022-12-28T13:56:02;1.90;;;1.10;;
11222;SDS011;5668;52.012;8.724;2022-12-28T13:58:32;1.37;;;1.10;;
11222;SDS011;5668;52.012;8.724;2022-12-28T14:01:03;2.13;;;1.60;;
11222;SDS011;5668;52.012;8.724;2022-12-28T14:03:35;1.50;;;1.40;;
11222;SDS011;5668;52.012;8.724;2022-12-28T14:06:04;2.53;;;1.57;;
11222;SDS011;5668;52.012;8.724;2022-12-28T14:08:32;1.50;;;1.30;;
11222;SDS011;5668;52.012;8.724;2022-12-28T14:11:03;1.43;;;1.30;;
11222;SDS011;5668;52.012;8.724;2022-12-28T14:13:31;1.93;;;1.23;;
11222;SDS011;5668;52.012;8.724;2022-12-28T14:16:01;2.00;;;1.37;;
11222;SDS011;5668;52.012;8.724;2022-12-28T14:18:31;1.83;;;1.40;;
11222;SDS011;5668;52.012;8.724;2022-12-28T14:20:59;1.20;;;1.10;;
11222;SDS011;5668;52.012;8.724;2022-12-28T14:23:31;1.90;;;1.33;;
11222;SDS011;5668;52.012;8.724;2022-12-28T14:26:01;2.13;;;1.30;;
11222;SDS011;5668;52.012;8.724;2022-12-28T14:28:33;1.43;;;1.23;;
11222;SDS011;5668;52.012;8.724;2022-12-28T14:31:03;2.37;;;1.40;;
11222;SDS011;5668;52.012;8.724;2022-12-28T14:33:33;1.43;;;1.33;;
11222;SDS011;5668;52.012;8.724;2022-12-28T14:36:02;2.10;;;1.30;;
11222;SDS011;5668;52.012;8.724;2022-12-28T14:38:32;2.80;;;1.63;;
11222;SDS011;5668;52.012;8.724;2022-12-28T14:41:02;1.80;;;1.30;;
11222;SDS011;5668;52.012;8.724;2022-12-28T14:43:31;1.87;;;1.50;;
11222;SDS011;5668;52.012;8.724;2022-12-28T14:46:13;3.03;;;1.70;;
11222;SDS011;5668;52.012;8.724;2022-12-28T14:48:41;2.40;;;1.70;;
11222;SDS011;5668;52.012;8.724;2022-12-28T14:51:27;1.83;;;1.43;;
11222;SDS011;5668;52.012;8.724;2022-12-28T14:56:44;2.17;;;1.57;;
11222;SDS011;5668;52.012;8.724;2022-12-28T14:59:17;2.67;;;1.63;;
11222;SDS011;5668;52.012;8.724;2022-12-28T15:01:49;1.90;;;1.50;;
11222;SDS011;5668;52.012;8.724;2022-12-28T15:07:11;4.63;;;1.63;;
11222;SDS011;5668;52.012;8.724;2022-12-28T15:09:39;2.13;;;1.60;;
11222;SDS011;5668;52.012;8.724;2022-12-28T15:12:13;1.77;;;1.67;;
11222;SDS011;5668;52.012;8.724;2022-12-28T15:14:46;2.40;;;1.73;;
11222;SDS011;5668;52.012;8.724;2022-12-28T15:17:14;3.47;;;1.60;;
11222;SDS011;5668;52.012;8.724;2022-12-28T15:19:42;1.80;;;1.50;;
11222;SDS011;5668;52.012;8.724;2022-12-28T15:22:10;1.93;;;1.50;;
11222;SDS011;5668;52.012;8.724;2022-12-28T15:24:38;2.00;;;1.30;;
11222;SDS011;5668;52.012;8.724;2022-12-28T15:27:09;2.10;;;1.40;;
11222;SDS011;5668;52.012;8.724;2022-12-28T15:29:37;3.43;;;1.23;;
11222;SDS011;5668;52.012;8.724;2022-12-28T15:32:08;2.97;;;1.43;;
11222;SDS011;5668;52.012;8.724;2022-12-28T15:34:53;2.60;;;1.60;;
11222;SDS011;5668;52.012;8.724;2022-12-28T15:37:23;2.40;;;1.33;;
11222;SDS011;5668;52.012;8.724;2022-12-28T15:39:50;2.47;;;1.23;;
11222;SDS011;5668;52.012;8.724;2022-12-28T15:42:17;1.97;;;1.40;;
11222;SDS011;5668;52.012;8.724;2022-12-28T15:44:46;2.47;;;1.30;;
11222;SDS011;5668;52.012;8.724;2022-12-28T15:47:15;2.17;;;1.33;;
11222;SDS011;5668;52.012;8.724;2022-12-28T15:49:42;2.70;;;1.40;;
11222;SDS011;5668;52.012;8.724;2022-12-28T15:52:09;3.17;;;1.40;;
11222;SDS011;5668;52.012;8.724;2022-12-28T15:54:36;2.87;;;1.30;;
11222;SDS011;5668;52.012;8.724;2022-12-28T15:57:05;1.83;;;1.30;;
11222;SDS011;5668;52.012;8.724;2022-12-28T15:59:35;1.50;;;1.30;;
11222;SDS011;5668;52.012;8.724;2022-12-28T16:02:04;1.33;;;1.20;;
11222;SDS011;5668;52.012;8.724;2022-12-28T16:04:31;8.33;;;3.40;;
11222;SDS011;5668;52.012;8.724;2022-12-28T16:06:58;3.60;;;1.80;;
11222;SDS011;5668;52.012;8.724;2022-12-28T16:09:25;3.60;;;1.90;;
11222;SDS011;5668;52.012;8.724;2022-12-28T16:11:53;3.77;;;1.87;;